createdAt,value
2022-07-25T00:00:11.796Z,21.80
2022-07-25T00:02:38.461Z,21.80
2022-07-25T00:05:05.408Z,21.70
2022-07-25T00:07:32.037Z,21.70
2022-07-25T00:09:58.735Z,21.60
2022-07-25T00:12:25.395Z,21.60
2022-07-25T00:14:52.280Z,21.60
2022-07-25T00:17:18.875Z,21.50
2022-07-25T00:19:45.444Z,21.50
2022-07-25T00:22:12.009Z,21.50
2022-07-25T00:24:38.638Z,21.40
2022-07-25T00:27:05.230Z,21.40
2022-07-25T00:29:31.877Z,21.40
2022-07-25T00:31:58.438Z,21.30
2022-07-25T00:34:25.048Z,21.30
2022-07-25T00:36:51.672Z,21.30
2022-07-25T00:39:18.272Z,21.20
2022-07-25T00:41:44.941Z,21.20
2022-07-25T00:44:22.081Z,21.20
2022-07-25T00:46:51.473Z,21.10
2022-07-25T00:49:18.130Z,21.10
2022-07-25T00:51:44.983Z,21.00
2022-07-25T00:54:11.856Z,21.00
2022-07-25T00:56:38.706Z,21.00
2022-07-25T00:59:05.413Z,21.00
2022-07-25T01:01:32.230Z,20.90
2022-07-25T01:03:58.927Z,20.90
2022-07-25T01:06:25.880Z,20.90
2022-07-25T01:08:53.290Z,20.90
2022-07-25T01:11:20.040Z,20.80
2022-07-25T01:13:46.681Z,20.80
2022-07-25T01:16:13.295Z,20.70
2022-07-25T01:18:39.992Z,20.80
2022-07-25T01:21:07.031Z,20.80
2022-07-25T01:23:33.620Z,20.70
2022-07-25T01:26:00.285Z,20.60
2022-07-25T01:28:27.682Z,20.60
2022-07-25T01:30:54.421Z,20.60
2022-07-25T01:33:21.746Z,20.60
2022-07-25T01:35:48.752Z,20.50
2022-07-25T01:38:16.420Z,20.50
2022-07-25T01:40:43.496Z,20.50
2022-07-25T01:43:10.834Z,20.40
2022-07-25T01:45:37.525Z,20.40
2022-07-25T01:48:04.127Z,20.40
2022-07-25T01:50:30.758Z,20.40
2022-07-25T01:52:57.370Z,20.40
2022-07-25T01:55:23.975Z,20.40
2022-07-25T01:57:51.936Z,20.40
2022-07-25T02:00:18.920Z,20.30
2022-07-25T02:02:45.808Z,20.30
2022-07-25T02:05:13.305Z,20.30
2022-07-25T02:07:40.066Z,20.30
2022-07-25T02:10:07.353Z,20.30
2022-07-25T02:12:34.137Z,20.20
2022-07-25T02:15:00.718Z,20.30
2022-07-25T02:17:27.389Z,20.20
2022-07-25T02:19:54.049Z,20.20
2022-07-25T02:22:20.648Z,20.10
2022-07-25T02:24:47.230Z,20.10
2022-07-25T02:27:13.784Z,20.10
2022-07-25T02:29:40.359Z,20.10
2022-07-25T02:32:06.924Z,20.00
2022-07-25T02:34:33.504Z,20.00
2022-07-25T02:37:00.105Z,20.00
2022-07-25T02:39:26.647Z,20.00
2022-07-25T02:41:53.236Z,20.00
2022-07-25T02:44:19.851Z,19.90
2022-07-25T02:46:46.499Z,19.90
2022-07-25T02:49:13.646Z,19.90
2022-07-25T02:51:40.264Z,19.90
2022-07-25T02:54:06.881Z,19.80
2022-07-25T02:56:33.527Z,19.80
2022-07-25T02:59:00.264Z,19.80
2022-07-25T03:01:27.070Z,19.80
2022-07-25T03:03:53.822Z,19.80
2022-07-25T03:06:20.435Z,19.80
2022-07-25T03:08:46.992Z,19.70
2022-07-25T03:11:14.159Z,19.70
2022-07-25T03:13:40.725Z,19.70
2022-07-25T03:16:07.792Z,19.70
2022-07-25T03:18:34.356Z,19.60
2022-07-25T03:21:01.050Z,19.60
2022-07-25T03:23:28.468Z,19.60
2022-07-25T03:25:55.687Z,19.60
2022-07-25T03:28:22.497Z,19.60
2022-07-25T03:30:49.122Z,19.50
2022-07-25T03:33:15.745Z,19.50
2022-07-25T03:35:42.983Z,19.50
2022-07-25T03:38:09.627Z,19.50
2022-07-25T03:40:36.531Z,19.50
2022-07-25T03:43:03.188Z,19.40
2022-07-25T03:45:29.847Z,19.50
2022-07-25T03:47:56.631Z,19.50
2022-07-25T03:50:23.426Z,19.40
2022-07-25T03:52:50.021Z,19.40
2022-07-25T03:55:16.642Z,19.40
2022-07-25T03:57:43.238Z,19.40
2022-07-25T04:00:10.552Z,19.40
2022-07-25T04:02:37.782Z,19.40
2022-07-25T04:05:05.943Z,19.40
2022-07-25T04:07:32.492Z,19.40
2022-07-25T04:09:59.164Z,19.40
2022-07-25T04:12:25.996Z,19.50
2022-07-25T04:14:52.580Z,19.50
2022-07-25T04:17:19.194Z,19.50
2022-07-25T04:19:47.067Z,19.50
2022-07-25T04:22:13.798Z,19.50
2022-07-25T04:24:40.476Z,19.40
2022-07-25T04:27:07.099Z,19.70
2022-07-25T04:29:33.716Z,19.60
2022-07-25T04:32:00.381Z,19.80
2022-07-25T04:34:27.121Z,20.00
2022-07-25T04:36:53.875Z,20.20
2022-07-25T04:39:20.523Z,20.40
2022-07-25T04:41:47.109Z,20.60
2022-07-25T04:44:13.900Z,20.80
2022-07-25T04:46:40.669Z,20.80
2022-07-25T04:49:07.315Z,20.90
2022-07-25T04:51:33.984Z,21.10
2022-07-25T04:54:00.695Z,21.10
2022-07-25T04:56:27.345Z,21.10
2022-07-25T04:58:53.993Z,21.00
2022-07-25T05:01:20.683Z,20.90
2022-07-25T05:03:50.108Z,20.80
2022-07-25T05:06:17.987Z,20.80
2022-07-25T05:08:44.563Z,20.70
2022-07-25T05:11:11.225Z,20.80
2022-07-25T05:13:37.794Z,20.80
2022-07-25T05:16:04.570Z,20.80
2022-07-25T05:18:31.337Z,20.90
2022-07-25T05:20:57.948Z,21.00
2022-07-25T05:23:24.534Z,21.10
2022-07-25T05:25:51.240Z,21.20
2022-07-25T05:28:17.908Z,21.20
2022-07-25T05:30:44.612Z,21.40
2022-07-25T05:33:11.194Z,21.50
2022-07-25T05:35:37.947Z,21.60
2022-07-25T05:38:04.630Z,21.70
2022-07-25T05:40:31.281Z,21.80
2022-07-25T05:43:02.542Z,21.90
2022-07-25T05:45:30.243Z,22.00
2022-07-25T05:47:56.851Z,22.10
2022-07-25T05:50:23.509Z,22.30
2022-07-25T05:52:50.148Z,22.60
2022-07-25T05:55:17.534Z,22.80
2022-07-25T05:57:44.199Z,23.00
2022-07-25T06:00:11.086Z,23.20
2022-07-25T06:02:37.740Z,23.40
2022-07-25T06:05:04.701Z,23.60
2022-07-25T06:07:31.325Z,23.70
2022-07-25T06:09:57.913Z,23.80
2022-07-25T06:12:24.564Z,23.90
2022-07-25T06:14:51.426Z,24.00
2022-07-25T06:17:18.175Z,24.20
2022-07-25T06:19:44.789Z,24.30
2022-07-25T06:22:11.536Z,24.50
2022-07-25T06:24:38.422Z,24.60
2022-07-25T06:27:05.132Z,24.80
2022-07-25T06:29:31.733Z,25.00
2022-07-25T06:31:58.391Z,25.20
2022-07-25T06:34:28.638Z,25.30
2022-07-25T06:36:57.328Z,25.50
2022-07-25T06:39:24.400Z,25.70
2022-07-25T06:41:51.275Z,25.90
2022-07-25T06:44:17.842Z,26.10
2022-07-25T06:46:44.434Z,26.30
2022-07-25T06:49:11.148Z,26.50
2022-07-25T06:51:37.998Z,26.70
2022-07-25T06:54:04.885Z,27.00
2022-07-25T06:56:32.917Z,27.20
2022-07-25T06:59:00.307Z,27.40
2022-07-25T07:01:27.084Z,27.50
2022-07-25T07:03:53.836Z,27.60
2022-07-25T07:06:20.470Z,27.60
2022-07-25T07:08:47.067Z,27.70
2022-07-25T07:11:15.262Z,27.90
2022-07-25T07:13:41.983Z,28.10
2022-07-25T07:16:08.882Z,28.20
2022-07-25T07:18:35.600Z,28.40
2022-07-25T07:21:02.496Z,28.50
2022-07-25T07:23:29.231Z,28.50
2022-07-25T07:25:56.746Z,28.60
2022-07-25T07:28:23.326Z,28.90
2022-07-25T07:31:15.257Z,29.10
2022-07-25T07:33:37.627Z,29.20
2022-07-25T07:36:04.324Z,29.30
2022-07-25T07:38:30.915Z,29.40
2022-07-25T07:40:57.554Z,29.60
2022-07-25T07:43:29.639Z,29.70
2022-07-25T07:45:59.238Z,29.80
2022-07-25T07:48:26.756Z,29.80
2022-07-25T07:50:53.397Z,29.70
2022-07-25T07:53:19.982Z,30.00
2022-07-25T07:55:48.729Z,30.10
2022-07-25T07:58:17.372Z,30.10
2022-07-25T08:00:44.970Z,30.10
2022-07-25T08:03:11.978Z,30.10
2022-07-25T08:05:43.481Z,30.40
2022-07-25T08:08:11.137Z,30.60
2022-07-25T08:10:39.815Z,30.50
2022-07-25T08:13:14.252Z,30.60
2022-07-25T08:15:41.570Z,30.60
2022-07-25T08:18:16.779Z,30.80
2022-07-25T08:20:44.973Z,30.90
2022-07-25T08:23:11.723Z,30.90
2022-07-25T08:25:38.605Z,30.80
2022-07-25T08:28:06.443Z,30.90
2022-07-25T08:30:34.241Z,31.00
2022-07-25T08:33:03.387Z,30.90
2022-07-25T08:35:30.451Z,31.00
2022-07-25T08:37:57.448Z,30.80
2022-07-25T08:40:24.873Z,31.00
2022-07-25T08:42:51.865Z,31.20
2022-07-25T08:45:19.594Z,31.30
2022-07-25T08:47:47.405Z,31.40
2022-07-25T08:50:15.522Z,31.50
2022-07-25T08:52:43.321Z,31.70
2022-07-25T08:55:10.966Z,32.00
2022-07-25T08:57:38.224Z,32.10
2022-07-25T09:00:05.503Z,32.40
2022-07-25T09:02:32.225Z,32.50
2022-07-25T09:04:59.192Z,32.70
2022-07-25T09:07:29.405Z,33.00
2022-07-25T09:09:55.979Z,33.30
2022-07-25T09:12:27.009Z,33.30
2022-07-25T09:14:54.013Z,33.50
2022-07-25T09:17:22.615Z,33.50
2022-07-25T09:19:54.600Z,33.70
2022-07-25T09:22:21.170Z,33.70
2022-07-25T09:24:48.052Z,33.90
2022-07-25T09:27:15.102Z,33.70
2022-07-25T09:29:45.168Z,33.70
2022-07-25T09:32:19.185Z,34.00
2022-07-25T09:34:46.861Z,34.10
2022-07-25T09:37:15.174Z,34.20
2022-07-25T09:39:48.230Z,34.40
2022-07-25T09:42:16.370Z,34.70
2022-07-25T09:44:43.000Z,35.00
2022-07-25T09:47:10.176Z,35.40
2022-07-25T09:49:47.643Z,35.60
2022-07-25T09:52:14.319Z,35.60
2022-07-25T09:54:40.923Z,35.70
2022-07-25T09:57:07.608Z,35.90
2022-07-25T09:59:34.744Z,36.00
2022-07-25T10:02:24.650Z,36.10
2022-07-25T10:04:59.508Z,35.90
2022-07-25T10:07:31.197Z,35.70
2022-07-25T10:09:59.329Z,35.80
2022-07-25T10:12:26.054Z,35.90
2022-07-25T10:15:09.602Z,35.80
2022-07-25T10:17:37.440Z,35.80
2022-07-25T10:20:06.509Z,35.80
2022-07-25T10:22:55.370Z,35.90
2022-07-25T10:25:23.213Z,36.00
2022-07-25T10:27:52.858Z,35.80
2022-07-25T10:30:23.869Z,35.90
2022-07-25T10:32:51.450Z,36.10
2022-07-25T10:35:18.044Z,36.20
2022-07-25T10:37:48.971Z,36.50
2022-07-25T10:40:25.864Z,36.80
2022-07-25T10:42:56.466Z,37.00
2022-07-25T10:45:25.920Z,37.20
2022-07-25T10:47:55.936Z,37.30
2022-07-25T10:50:40.258Z,37.50
2022-07-25T10:53:10.074Z,37.70
2022-07-25T10:55:37.960Z,38.00
2022-07-25T10:58:22.161Z,38.10
2022-07-25T11:00:51.087Z,38.30
2022-07-25T11:03:18.707Z,38.40
2022-07-25T11:05:48.445Z,38.50
2022-07-25T11:08:21.947Z,38.60
2022-07-25T11:10:53.272Z,38.60
2022-07-25T11:13:20.033Z,38.70
2022-07-25T11:15:46.700Z,38.80
2022-07-25T11:18:13.519Z,39.00
2022-07-25T11:20:40.077Z,38.90
2022-07-25T11:23:06.724Z,39.20
2022-07-25T11:25:33.334Z,38.70
2022-07-25T11:28:00.854Z,38.70
2022-07-25T11:30:29.581Z,38.90
2022-07-25T11:32:57.236Z,39.10
2022-07-25T11:35:28.528Z,39.30
2022-07-25T11:37:55.330Z,39.40
2022-07-25T11:40:22.743Z,39.70
2022-07-25T11:42:53.446Z,39.90
2022-07-25T11:45:22.822Z,39.90
2022-07-25T11:47:51.041Z,39.90
2022-07-25T11:50:17.630Z,39.70
2022-07-25T11:52:45.717Z,39.70
2022-07-25T11:55:18.454Z,39.70
2022-07-25T11:57:47.080Z,39.90
2022-07-25T12:00:20.780Z,40.00
2022-07-25T12:02:50.602Z,40.00
2022-07-25T12:05:20.578Z,40.00
2022-07-25T12:07:47.136Z,39.80
2022-07-25T12:10:24.332Z,40.10
2022-07-25T12:13:06.238Z,40.20
2022-07-25T12:15:39.612Z,40.10
2022-07-25T12:18:08.936Z,40.00
2022-07-25T12:20:38.183Z,40.10
2022-07-25T12:23:05.849Z,40.30
2022-07-25T12:25:33.372Z,40.40
2022-07-25T12:28:01.790Z,40.50
2022-07-25T12:30:28.860Z,40.40
2022-07-25T12:32:56.259Z,40.50
2022-07-25T12:35:23.354Z,40.50
2022-07-25T12:37:50.147Z,40.60
2022-07-25T12:40:18.216Z,40.70
2022-07-25T12:42:45.522Z,40.70
2022-07-25T12:45:12.896Z,40.80
2022-07-25T12:47:39.682Z,40.60
2022-07-25T12:50:06.932Z,40.60
2022-07-25T12:52:33.620Z,40.50
2022-07-25T12:55:00.308Z,40.60
2022-07-25T12:57:26.994Z,40.40
2022-07-25T12:59:53.608Z,40.20
2022-07-25T13:02:20.270Z,40.50
2022-07-25T13:04:48.911Z,40.70
2022-07-25T13:07:16.088Z,40.50
2022-07-25T13:09:42.771Z,40.40
2022-07-25T13:12:10.428Z,40.30
2022-07-25T13:14:40.125Z,40.00
2022-07-25T13:17:07.251Z,39.80
2022-07-25T13:19:33.917Z,39.90
2022-07-25T13:22:00.570Z,39.80
2022-07-25T13:24:27.170Z,40.00
2022-07-25T13:26:53.731Z,40.10
2022-07-25T13:29:20.284Z,40.20
2022-07-25T13:31:47.366Z,40.10
2022-07-25T13:34:14.399Z,40.00
2022-07-25T13:36:41.248Z,39.90
2022-07-25T13:39:08.595Z,39.90
2022-07-25T13:41:35.635Z,39.80
2022-07-25T13:44:02.221Z,39.70
2022-07-25T13:46:28.821Z,39.60
2022-07-25T13:48:55.612Z,39.60
2022-07-25T13:51:22.274Z,39.40
2022-07-25T13:53:48.895Z,39.30
2022-07-25T13:56:15.725Z,39.30
2022-07-25T13:58:43.105Z,39.30
2022-07-25T14:01:11.529Z,39.20
2022-07-25T14:03:38.211Z,39.00
2022-07-25T14:06:05.506Z,39.10
2022-07-25T14:08:32.167Z,39.10
2022-07-25T14:10:58.795Z,39.10
2022-07-25T14:13:25.393Z,39.30
2022-07-25T14:15:52.196Z,39.30
2022-07-25T14:18:18.918Z,39.20
2022-07-25T14:20:46.460Z,39.30
2022-07-25T14:23:13.048Z,39.30
2022-07-25T14:25:39.653Z,39.30
2022-07-25T14:28:06.352Z,39.10
2022-07-25T14:30:32.943Z,39.00
2022-07-25T14:32:59.585Z,39.00
2022-07-25T14:35:31.871Z,39.10
2022-07-25T14:37:59.043Z,39.00
2022-07-25T14:40:25.834Z,39.10
2022-07-25T14:42:52.404Z,39.10
2022-07-25T14:45:21.814Z,38.60
2022-07-25T14:47:48.421Z,38.40
2022-07-25T14:50:15.061Z,38.40
2022-07-25T14:52:41.647Z,38.40
2022-07-25T14:55:08.539Z,38.40
2022-07-25T14:57:35.242Z,38.30
2022-07-25T15:00:03.468Z,38.10
2022-07-25T15:02:30.061Z,38.30
2022-07-25T15:04:56.781Z,38.30
2022-07-25T15:07:23.649Z,38.50
2022-07-25T15:09:50.272Z,38.40
2022-07-25T15:12:17.390Z,38.30
2022-07-25T15:14:44.063Z,38.20
2022-07-25T15:17:10.669Z,37.80
2022-07-25T15:19:37.258Z,37.50
2022-07-25T15:22:03.893Z,37.00
2022-07-25T15:24:36.340Z,36.80
2022-07-25T15:27:10.921Z,36.50
2022-07-25T15:29:37.485Z,36.20
2022-07-25T15:32:05.463Z,36.10
2022-07-25T15:34:33.482Z,35.90
2022-07-25T15:37:00.093Z,35.60
2022-07-25T15:39:26.869Z,35.30
2022-07-25T15:41:53.481Z,35.10
2022-07-25T15:44:20.059Z,34.90
2022-07-25T15:46:46.804Z,34.90
2022-07-25T15:49:14.704Z,34.80
2022-07-25T15:51:41.390Z,34.70
2022-07-25T15:54:08.127Z,34.60
2022-07-25T15:56:34.683Z,34.30
2022-07-25T15:59:01.372Z,34.20
2022-07-25T16:01:28.138Z,34.00
2022-07-25T16:03:59.668Z,33.80
2022-07-25T16:06:26.789Z,33.70
2022-07-25T16:08:53.701Z,33.70
2022-07-25T16:11:20.271Z,33.50
2022-07-25T16:13:46.879Z,33.40
2022-07-25T16:16:13.591Z,33.30
2022-07-25T16:18:40.235Z,33.20
2022-07-25T16:21:06.875Z,33.00
2022-07-25T16:23:38.397Z,32.90
2022-07-25T16:26:08.490Z,32.80
2022-07-25T16:28:39.174Z,32.80
2022-07-25T16:31:06.345Z,32.70
2022-07-25T16:33:33.030Z,32.60
2022-07-25T16:35:59.640Z,32.50
2022-07-25T16:38:27.438Z,32.40
2022-07-25T16:40:54.143Z,32.30
2022-07-25T16:43:21.042Z,32.20
2022-07-25T16:45:47.659Z,32.10
2022-07-25T16:48:14.228Z,32.20
2022-07-25T16:50:40.800Z,32.10
2022-07-25T16:53:07.576Z,32.20
2022-07-25T16:55:34.277Z,32.30
2022-07-25T16:58:00.907Z,32.50
2022-07-25T17:00:27.460Z,32.60
2022-07-25T17:02:54.037Z,32.70
2022-07-25T17:05:20.788Z,32.80
2022-07-25T17:07:48.712Z,32.90
2022-07-25T17:10:15.310Z,33.00
2022-07-25T17:12:41.878Z,33.00
2022-07-25T17:15:09.142Z,32.90
2022-07-25T17:17:35.751Z,32.90
2022-07-25T17:20:02.384Z,32.90
2022-07-25T17:22:28.968Z,32.80
2022-07-25T17:24:55.618Z,32.80
2022-07-25T17:27:22.360Z,32.80
2022-07-25T17:29:49.135Z,32.70
2022-07-25T17:32:15.810Z,32.60
2022-07-25T17:34:42.522Z,32.60
2022-07-25T17:37:10.136Z,32.60
2022-07-25T17:39:37.128Z,32.50
2022-07-25T17:42:07.144Z,32.40
2022-07-25T17:44:34.518Z,32.40
2022-07-25T17:47:01.598Z,32.30
2022-07-25T17:49:28.238Z,32.30
2022-07-25T17:51:54.834Z,32.30
2022-07-25T17:54:21.428Z,32.20
2022-07-25T17:56:48.042Z,32.20
2022-07-25T17:59:14.648Z,32.10
2022-07-25T18:01:41.405Z,32.10
2022-07-25T18:04:08.453Z,32.10
2022-07-25T18:06:35.540Z,32.00
2022-07-25T18:09:02.113Z,31.90
2022-07-25T18:11:28.730Z,31.90
2022-07-25T18:13:55.339Z,31.80
2022-07-25T18:16:22.718Z,31.70
2022-07-25T18:18:49.332Z,31.70
2022-07-25T18:21:16.335Z,31.50
2022-07-25T18:23:42.881Z,31.40
2022-07-25T18:26:09.549Z,31.30
2022-07-25T18:28:36.153Z,31.20
2022-07-25T18:31:02.788Z,31.20
2022-07-25T18:33:29.457Z,31.10
2022-07-25T18:35:56.056Z,31.00
2022-07-25T18:38:22.672Z,30.90
2022-07-25T18:40:51.583Z,30.80
2022-07-25T18:43:24.451Z,30.80
2022-07-25T18:45:53.430Z,30.70
2022-07-25T18:48:20.009Z,30.60
2022-07-25T18:50:46.618Z,30.60
2022-07-25T18:53:13.239Z,30.50
2022-07-25T18:55:41.162Z,30.40
2022-07-25T18:58:08.915Z,30.30
2022-07-25T19:00:35.517Z,30.20
2022-07-25T19:03:02.122Z,30.20
2022-07-25T19:05:28.721Z,30.10
2022-07-25T19:07:58.928Z,30.10
2022-07-25T19:10:25.702Z,30.00
2022-07-25T19:12:52.335Z,29.90
2022-07-25T19:15:18.935Z,29.90
2022-07-25T19:17:45.642Z,29.80
2022-07-25T19:20:12.220Z,29.80
2022-07-25T19:22:38.913Z,29.70
2022-07-25T19:25:08.230Z,29.60
2022-07-25T19:27:35.672Z,29.50
2022-07-25T19:30:03.449Z,29.50
2022-07-25T19:32:30.000Z,29.40
2022-07-25T19:34:56.560Z,29.30
2022-07-25T19:37:23.149Z,29.30
2022-07-25T19:39:51.206Z,29.20
2022-07-25T19:42:17.794Z,29.20
2022-07-25T19:44:44.396Z,29.10
2022-07-25T19:47:12.049Z,29.00
2022-07-25T19:49:40.025Z,29.00
2022-07-25T19:52:07.082Z,28.90
2022-07-25T19:54:33.679Z,28.80
2022-07-25T19:57:00.361Z,28.80
2022-07-25T19:59:27.056Z,28.80
2022-07-25T20:01:55.359Z,28.70
2022-07-25T20:04:22.333Z,28.70
2022-07-25T20:06:50.593Z,28.70
2022-07-25T20:09:17.343Z,28.60
2022-07-25T20:11:43.917Z,28.50
2022-07-25T20:14:11.174Z,28.50
2022-07-25T20:16:38.091Z,28.50
2022-07-25T20:19:06.291Z,28.30
2022-07-25T20:21:33.904Z,28.30
2022-07-25T20:24:00.465Z,28.30
2022-07-25T20:26:27.083Z,28.20
2022-07-25T20:28:55.060Z,28.20
2022-07-25T20:31:24.251Z,28.10
2022-07-25T20:33:51.471Z,28.10
2022-07-25T20:36:18.215Z,28.00
2022-07-25T20:38:44.912Z,28.00
2022-07-25T20:41:12.321Z,28.00
2022-07-25T20:43:40.080Z,27.90
2022-07-25T20:46:09.390Z,27.80
2022-07-25T20:48:36.454Z,27.80
2022-07-25T20:51:03.114Z,27.70
2022-07-25T20:53:29.760Z,27.70
2022-07-25T20:55:56.417Z,27.60
2022-07-25T20:58:23.025Z,27.60
2022-07-25T21:00:49.767Z,27.50
2022-07-25T21:03:16.437Z,27.50
2022-07-25T21:05:43.766Z,27.40
2022-07-25T21:08:11.398Z,27.40
2022-07-25T21:10:38.784Z,27.30
2022-07-25T21:13:05.563Z,27.20
2022-07-25T21:15:32.449Z,27.20
2022-07-25T21:17:59.654Z,27.10
2022-07-25T21:20:26.355Z,27.00
2022-07-25T21:22:55.302Z,27.00
2022-07-25T21:25:22.066Z,27.00
2022-07-25T21:27:48.727Z,26.90
2022-07-25T21:30:15.444Z,26.90
2022-07-25T21:32:42.201Z,26.80
2022-07-25T21:35:09.016Z,26.80
2022-07-25T21:37:35.724Z,26.80
2022-07-25T21:40:02.690Z,26.70
2022-07-25T21:42:29.572Z,26.60
2022-07-25T21:44:56.185Z,26.60
2022-07-25T21:47:22.892Z,26.50
2022-07-25T21:50:08.382Z,26.50
2022-07-25T21:52:35.315Z,26.40
2022-07-25T21:55:02.700Z,26.30
2022-07-25T21:57:29.303Z,26.30
2022-07-25T21:59:55.942Z,26.20
2022-07-25T22:02:23.395Z,26.20
2022-07-25T22:04:50.141Z,26.10
2022-07-25T22:07:16.785Z,26.10
2022-07-25T22:09:43.479Z,26.00
2022-07-25T22:12:10.155Z,25.90
2022-07-25T22:14:37.606Z,25.80
2022-07-25T22:17:04.430Z,25.70
2022-07-25T22:19:31.099Z,25.70
2022-07-25T22:21:57.766Z,25.60
2022-07-25T22:24:24.349Z,25.50
2022-07-25T22:26:50.921Z,25.50
2022-07-25T22:29:17.579Z,25.40
2022-07-25T22:31:44.453Z,25.40
2022-07-25T22:34:11.531Z,25.30
2022-07-25T22:36:38.090Z,25.20
2022-07-25T22:39:05.052Z,25.20
2022-07-25T22:41:31.908Z,25.20
2022-07-25T22:43:59.894Z,25.10
2022-07-25T22:46:30.548Z,25.00
2022-07-25T22:48:58.053Z,24.90
2022-07-25T22:51:25.033Z,24.90
2022-07-25T22:53:51.746Z,24.90
2022-07-25T22:56:18.705Z,24.90
2022-07-25T22:58:46.708Z,24.80
2022-07-25T23:01:16.195Z,24.80
2022-07-25T23:03:42.837Z,24.80
2022-07-25T23:06:09.615Z,24.70
2022-07-25T23:08:36.217Z,24.40
2022-07-25T23:11:03.590Z,24.60
2022-07-25T23:13:30.225Z,24.60
2022-07-25T23:15:56.953Z,24.50
2022-07-25T23:18:23.700Z,24.50
2022-07-25T23:20:50.284Z,24.40
2022-07-25T23:23:16.858Z,24.40
2022-07-25T23:25:43.417Z,24.30
2022-07-25T23:28:09.997Z,24.30
2022-07-25T23:30:40.255Z,24.30
2022-07-25T23:33:07.824Z,24.30
2022-07-25T23:35:34.612Z,24.30
2022-07-25T23:38:01.205Z,24.20
2022-07-25T23:40:27.869Z,24.20
2022-07-25T23:42:54.938Z,24.20
2022-07-25T23:45:21.855Z,24.10
2022-07-25T23:47:51.569Z,24.10
2022-07-25T23:50:19.612Z,24.10
2022-07-25T23:52:46.314Z,24.00
2022-07-25T23:55:12.942Z,24.00
2022-07-25T23:57:39.577Z,23.90
